sensor_id;sensor_type;location;lat;lon;timestamp;pressure;altitude;pressure_sealevel;temperature;humidity
12213;BME280;6169;44.158;22.788;2023-03-12T00:03:35;100207.44;;;5.68;41.30
12213;BME280;6169;44.158;22.788;2023-03-12T00:08:39;100238.16;;;5.08;43.05
12213;BME280;6169;44.158;22.788;2023-03-12T00:13:42;100245.81;;;5.12;42.28
12213;BME280;6169;44.158;22.788;2023-03-12T00:18:46;100252.44;;;5.09;41.95
12213;BME280;6169;44.158;22.788;2023-03-12T00:23:51;100231.84;;;5.41;41.23
12213;BME280;6169;44.158;22.788;2023-03-12T00:28:53;100239.75;;;5.29;42.13
12213;BME280;6169;44.158;22.788;2023-03-12T00:33:56;100249.00;;;4.62;44.00
12213;BME280;6169;44.158;22.788;2023-03-12T00:39:00;100249.38;;;4.92;42.58
12213;BME280;6169;44.158;22.788;2023-03-12T00:44:02;100276.94;;;4.54;42.82
12213;BME280;6169;44.158;22.788;2023-03-12T00:49:04;100269.91;;;4.86;41.90
12213;BME280;6169;44.158;22.788;2023-03-12T00:54:08;100275.50;;;4.85;42.67
12213;BME280;6169;44.158;22.788;2023-03-12T00:59:10;100278.44;;;4.63;42.45
12213;BME280;6169;44.158;22.788;2023-03-12T01:04:13;100266.59;;;4.64;42.44
12213;BME280;6169;44.158;22.788;2023-03-12T01:09:17;100275.44;;;5.12;41.52
12213;BME280;6169;44.158;22.788;2023-03-12T01:14:20;100271.78;;;4.86;41.88
12213;BME280;6169;44.158;22.788;2023-03-12T01:19:23;100271.78;;;4.59;42.61
12213;BME280;6169;44.158;22.788;2023-03-12T01:24:27;100290.59;;;4.26;42.92
12213;BME280;6169;44.158;22.788;2023-03-12T01:29:29;100293.75;;;4.63;41.76
12213;BME280;6169;44.158;22.788;2023-03-12T01:34:31;100297.47;;;4.55;41.85
12213;BME280;6169;44.158;22.788;2023-03-12T01:39:36;100306.19;;;4.57;41.26
12213;BME280;6169;44.158;22.788;2023-03-12T01:44:52;100328.75;;;4.63;41.72
12213;BME280;6169;44.158;22.788;2023-03-12T01:49:55;100300.16;;;4.42;41.65
12213;BME280;6169;44.158;22.788;2023-03-12T01:55:02;100343.47;;;4.60;42.26
12213;BME280;6169;44.158;22.788;2023-03-12T02:00:08;100353.59;;;4.58;42.97
12213;BME280;6169;44.158;22.788;2023-03-12T02:05:17;100372.88;;;4.69;42.23
12213;BME280;6169;44.158;22.788;2023-03-12T02:10:22;100381.34;;;4.65;42.43
12213;BME280;6169;44.158;22.788;2023-03-12T02:15:25;100377.63;;;4.67;43.06
12213;BME280;6169;44.158;22.788;2023-03-12T02:20:34;100392.13;;;4.72;42.48
12213;BME280;6169;44.158;22.788;2023-03-12T02:25:39;100372.78;;;4.22;42.90
12213;BME280;6169;44.158;22.788;2023-03-12T02:30:45;100376.16;;;4.44;42.44
12213;BME280;6169;44.158;22.788;2023-03-12T02:35:48;100378.03;;;4.43;42.11
12213;BME280;6169;44.158;22.788;2023-03-12T02:40:55;100390.50;;;3.96;43.00
12213;BME280;6169;44.158;22.788;2023-03-12T02:45:59;100401.72;;;4.13;42.46
12213;BME280;6169;44.158;22.788;2023-03-12T02:51:01;100434.63;;;4.97;41.03
12213;BME280;6169;44.158;22.788;2023-03-12T02:56:06;100456.19;;;5.50;39.94
12213;BME280;6169;44.158;22.788;2023-03-12T03:01:08;100470.91;;;5.01;40.46
12213;BME280;6169;44.158;22.788;2023-03-12T03:06:10;100479.16;;;4.99;41.22
12213;BME280;6169;44.158;22.788;2023-03-12T03:11:14;100471.91;;;4.80;41.60
12213;BME280;6169;44.158;22.788;2023-03-12T03:16:16;100474.53;;;4.05;41.80
12213;BME280;6169;44.158;22.788;2023-03-12T03:21:18;100461.00;;;4.40;41.53
12213;BME280;6169;44.158;22.788;2023-03-12T03:26:23;100463.50;;;4.35;41.97
12213;BME280;6169;44.158;22.788;2023-03-12T03:31:26;100471.34;;;4.36;41.78
12213;BME280;6169;44.158;22.788;2023-03-12T03:36:28;100473.47;;;4.41;42.80
12213;BME280;6169;44.158;22.788;2023-03-12T03:41:32;100486.19;;;4.12;43.61
12213;BME280;6169;44.158;22.788;2023-03-12T03:46:34;100492.41;;;4.19;43.46
12213;BME280;6169;44.158;22.788;2023-03-12T03:51:36;100495.66;;;4.56;42.92
12213;BME280;6169;44.158;22.788;2023-03-12T03:56:43;100497.09;;;4.52;41.97
12213;BME280;6169;44.158;22.788;2023-03-12T04:01:45;100506.13;;;4.31;42.74
12213;BME280;6169;44.158;22.788;2023-03-12T04:06:47;100523.56;;;4.49;42.86
12213;BME280;6169;44.158;22.788;2023-03-12T04:11:50;100527.03;;;4.91;41.87
12213;BME280;6169;44.158;22.788;2023-03-12T04:16:53;100542.31;;;4.77;41.82
12213;BME280;6169;44.158;22.788;2023-03-12T04:21:55;100550.53;;;5.17;40.94
12213;BME280;6169;44.158;22.788;2023-03-12T04:26:59;100562.84;;;4.78;42.00
12213;BME280;6169;44.158;22.788;2023-03-12T04:32:01;100564.13;;;4.88;41.41
12213;BME280;6169;44.158;22.788;2023-03-12T04:37:03;100561.06;;;4.50;42.22
12213;BME280;6169;44.158;22.788;2023-03-12T04:42:07;100557.31;;;4.38;42.75
12213;BME280;6169;44.158;22.788;2023-03-12T04:47:10;100561.22;;;4.35;42.70
12213;BME280;6169;44.158;22.788;2023-03-12T04:52:12;100567.19;;;4.31;43.11
12213;BME280;6169;44.158;22.788;2023-03-12T04:57:15;100583.69;;;4.62;42.46
12213;BME280;6169;44.158;22.788;2023-03-12T05:02:18;100595.97;;;4.30;43.00
12213;BME280;6169;44.158;22.788;2023-03-12T05:07:20;100598.56;;;4.17;43.44
12213;BME280;6169;44.158;22.788;2023-03-12T05:12:24;100597.16;;;4.21;43.78
12213;BME280;6169;44.158;22.788;2023-03-12T05:17:26;100595.47;;;4.20;43.84
12213;BME280;6169;44.158;22.788;2023-03-12T05:22:28;100590.69;;;3.59;45.68
12213;BME280;6169;44.158;22.788;2023-03-12T05:27:32;100594.84;;;3.62;45.30
12213;BME280;6169;44.158;22.788;2023-03-12T05:32:34;100579.94;;;3.59;45.48
12213;BME280;6169;44.158;22.788;2023-03-12T05:37:36;100576.59;;;3.57;44.88
12213;BME280;6169;44.158;22.788;2023-03-12T05:42:40;100607.97;;;4.00;43.51
12213;BME280;6169;44.158;22.788;2023-03-12T05:47:42;100636.31;;;3.95;43.87
12213;BME280;6169;44.158;22.788;2023-03-12T05:52:44;100640.16;;;4.14;44.40
12213;BME280;6169;44.158;22.788;2023-03-12T05:57:48;100637.03;;;4.11;44.58
12213;BME280;6169;44.158;22.788;2023-03-12T06:02:50;100650.44;;;4.04;44.16
12213;BME280;6169;44.158;22.788;2023-03-12T06:07:52;100653.84;;;3.70;45.58
12213;BME280;6169;44.158;22.788;2023-03-12T06:12:56;100681.94;;;4.10;44.21
12213;BME280;6169;44.158;22.788;2023-03-12T06:17:58;100688.50;;;4.29;44.00
12213;BME280;6169;44.158;22.788;2023-03-12T06:23:01;100691.72;;;4.18;43.20
12213;BME280;6169;44.158;22.788;2023-03-12T06:28:04;100710.19;;;4.84;42.01
12213;BME280;6169;44.158;22.788;2023-03-12T06:33:06;100713.41;;;4.38;42.84
12213;BME280;6169;44.158;22.788;2023-03-12T06:38:09;100727.09;;;4.71;41.83
12213;BME280;6169;44.158;22.788;2023-03-12T06:43:12;100736.91;;;5.20;41.51
12213;BME280;6169;44.158;22.788;2023-03-12T06:48:14;100738.88;;;4.63;41.30
12213;BME280;6169;44.158;22.788;2023-03-12T06:53:17;100748.38;;;4.94;40.82
12213;BME280;6169;44.158;22.788;2023-03-12T06:58:20;100764.78;;;5.34;39.96
12213;BME280;6169;44.158;22.788;2023-03-12T07:03:23;100772.00;;;5.27;40.13
12213;BME280;6169;44.158;22.788;2023-03-12T07:08:26;100774.78;;;5.05;40.45
12213;BME280;6169;44.158;22.788;2023-03-12T07:13:32;100778.66;;;5.92;39.64
12213;BME280;6169;44.158;22.788;2023-03-12T07:18:34;100794.78;;;5.66;39.62
12213;BME280;6169;44.158;22.788;2023-03-12T07:23:36;100775.66;;;5.61;39.53
12213;BME280;6169;44.158;22.788;2023-03-12T07:28:40;100764.97;;;6.00;38.50
12213;BME280;6169;44.158;22.788;2023-03-12T07:33:42;100789.38;;;5.72;40.08
12213;BME280;6169;44.158;22.788;2023-03-12T07:38:44;100792.94;;;5.73;39.28
12213;BME280;6169;44.158;22.788;2023-03-12T07:43:48;100801.16;;;6.39;38.86
12213;BME280;6169;44.158;22.788;2023-03-12T07:48:50;100809.47;;;6.44;38.47
12213;BME280;6169;44.158;22.788;2023-03-12T07:53:52;100809.91;;;6.41;38.27
12213;BME280;6169;44.158;22.788;2023-03-12T07:58:56;100814.88;;;6.84;37.21
12213;BME280;6169;44.158;22.788;2023-03-12T08:03:58;100814.88;;;6.84;36.31
12213;BME280;6169;44.158;22.788;2023-03-12T08:09:01;100823.41;;;6.88;36.75
12213;BME280;6169;44.158;22.788;2023-03-12T08:14:04;100820.72;;;7.66;36.12
12213;BME280;6169;44.158;22.788;2023-03-12T08:19:07;100826.06;;;7.28;36.42
12213;BME280;6169;44.158;22.788;2023-03-12T08:24:09;100836.31;;;7.06;37.06
12213;BME280;6169;44.158;22.788;2023-03-12T08:29:13;100853.13;;;7.28;35.81
12213;BME280;6169;44.158;22.788;2023-03-12T08:34:15;100851.00;;;7.30;35.11
12213;BME280;6169;44.158;22.788;2023-03-12T08:39:17;100868.53;;;7.92;34.20
12213;BME280;6169;44.158;22.788;2023-03-12T08:44:21;100879.31;;;7.34;33.70
12213;BME280;6169;44.158;22.788;2023-03-12T08:49:24;100884.50;;;8.00;34.97
12213;BME280;6169;44.158;22.788;2023-03-12T08:54:26;100870.25;;;7.67;33.65
12213;BME280;6169;44.158;22.788;2023-03-12T08:59:30;100885.75;;;8.05;33.45
12213;BME280;6169;44.158;22.788;2023-03-12T09:04:32;100887.25;;;8.39;33.29
12213;BME280;6169;44.158;22.788;2023-03-12T09:09:35;100879.56;;;8.36;32.38
12213;BME280;6169;44.158;22.788;2023-03-12T09:14:38;100878.81;;;8.54;34.06
12213;BME280;6169;44.158;22.788;2023-03-12T09:19:41;100894.16;;;8.66;32.82
12213;BME280;6169;44.158;22.788;2023-03-12T09:24:43;100891.47;;;8.92;33.29
12213;BME280;6169;44.158;22.788;2023-03-12T09:29:46;100880.94;;;8.45;32.48
12213;BME280;6169;44.158;22.788;2023-03-12T09:34:49;100885.25;;;8.84;33.13
12213;BME280;6169;44.158;22.788;2023-03-12T09:39:51;100885.34;;;8.71;32.31
12213;BME280;6169;44.158;22.788;2023-03-12T09:44:56;100897.97;;;8.59;31.34
12213;BME280;6169;44.158;22.788;2023-03-12T09:50:05;100904.63;;;8.56;31.91
12213;BME280;6169;44.158;22.788;2023-03-12T09:55:19;100925.81;;;8.73;31.66
12213;BME280;6169;44.158;22.788;2023-03-12T10:00:26;100918.63;;;9.10;31.99
12213;BME280;6169;44.158;22.788;2023-03-12T10:05:35;100899.13;;;9.45;32.52
12213;BME280;6169;44.158;22.788;2023-03-12T10:10:50;100911.59;;;10.08;31.42
12213;BME280;6169;44.158;22.788;2023-03-12T10:16:04;100916.84;;;10.21;30.03
12213;BME280;6169;44.158;22.788;2023-03-12T10:21:15;100932.81;;;10.78;28.92
12213;BME280;6169;44.158;22.788;2023-03-12T10:26:22;100935.66;;;10.53;28.37
12213;BME280;6169;44.158;22.788;2023-03-12T10:31:29;100930.72;;;10.61;29.41
12213;BME280;6169;44.158;22.788;2023-03-12T10:36:37;100931.50;;;10.50;28.36
12213;BME280;6169;44.158;22.788;2023-03-12T10:41:41;100932.75;;;10.17;28.10
12213;BME280;6169;44.158;22.788;2023-03-12T10:47:09;100932.91;;;10.22;28.68
12213;BME280;6169;44.158;22.788;2023-03-12T10:52:19;100917.22;;;10.06;29.70
12213;BME280;6169;44.158;22.788;2023-03-12T10:57:38;100925.06;;;10.63;28.60
12213;BME280;6169;44.158;22.788;2023-03-12T11:02:43;100914.31;;;11.33;26.68
12213;BME280;6169;44.158;22.788;2023-03-12T11:07:45;100891.06;;;11.90;28.15
12213;BME280;6169;44.158;22.788;2023-03-12T11:13:03;100908.81;;;11.69;27.80
12213;BME280;6169;44.158;22.788;2023-03-12T11:18:27;100899.13;;;11.85;27.63
12213;BME280;6169;44.158;22.788;2023-03-12T11:23:30;100902.03;;;12.07;26.27
12213;BME280;6169;44.158;22.788;2023-03-12T11:28:37;100901.59;;;11.98;26.43
12213;BME280;6169;44.158;22.788;2023-03-12T11:33:42;100898.41;;;11.77;nan
12213;BME280;6169;44.158;22.788;2023-03-12T11:38:50;100887.84;;;11.93;25.37
12213;BME280;6169;44.158;22.788;2023-03-12T11:44:11;100888.84;;;12.15;25.38
12213;BME280;6169;44.158;22.788;2023-03-12T11:49:37;100883.56;;;12.25;25.97
12213;BME280;6169;44.158;22.788;2023-03-12T11:55:04;100882.31;;;11.64;26.38
12213;BME280;6169;44.158;22.788;2023-03-12T12:00:14;100887.16;;;12.72;24.01
12213;BME280;6169;44.158;22.788;2023-03-12T12:05:25;100878.41;;;12.41;24.51
12213;BME280;6169;44.158;22.788;2023-03-12T12:10:38;100882.91;;;12.18;25.38
12213;BME280;6169;44.158;22.788;2023-03-12T12:15:52;100881.88;;;12.82;25.97
12213;BME280;6169;44.158;22.788;2023-03-12T12:21:01;100885.63;;;12.47;24.69
12213;BME280;6169;44.158;22.788;2023-03-12T12:26:08;100893.03;;;13.14;25.67
12213;BME280;6169;44.158;22.788;2023-03-12T12:31:22;100891.81;;;12.59;26.56
12213;BME280;6169;44.158;22.788;2023-03-12T12:36:31;100895.38;;;13.05;26.53
12213;BME280;6169;44.158;22.788;2023-03-12T12:41:36;100887.75;;;12.45;24.64
12213;BME280;6169;44.158;22.788;2023-03-12T12:46:43;100912.28;;;11.29;25.96
12213;BME280;6169;44.158;22.788;2023-03-12T12:51:52;100901.69;;;12.32;25.82
12213;BME280;6169;44.158;22.788;2023-03-12T12:57:01;100906.56;;;12.75;24.44
12213;BME280;6169;44.158;22.788;2023-03-12T13:02:14;100913.59;;;12.14;25.37
12213;BME280;6169;44.158;22.788;2023-03-12T13:07:34;100908.03;;;12.95;24.47
12213;BME280;6169;44.158;22.788;2023-03-12T13:12:46;100906.22;;;12.72;24.18
12213;BME280;6169;44.158;22.788;2023-03-12T13:18:03;100915.78;;;12.29;25.75
12213;BME280;6169;44.158;22.788;2023-03-12T13:23:29;100907.75;;;12.51;25.26
12213;BME280;6169;44.158;22.788;2023-03-12T13:28:36;100921.25;;;13.03;24.42
12213;BME280;6169;44.158;22.788;2023-03-12T13:33:57;100935.97;;;12.73;24.97
12213;BME280;6169;44.158;22.788;2023-03-12T13:39:17;100934.13;;;12.62;25.32
12213;BME280;6169;44.158;22.788;2023-03-12T13:44:38;100946.22;;;12.95;25.65
12213;BME280;6169;44.158;22.788;2023-03-12T13:49:42;100956.66;;;12.69;25.52
12213;BME280;6169;44.158;22.788;2023-03-12T13:54:49;100962.28;;;12.51;26.01
12213;BME280;6169;44.158;22.788;2023-03-12T13:59:57;100966.94;;;12.50;25.81
12213;BME280;6169;44.158;22.788;2023-03-12T14:05:04;100977.56;;;12.23;25.58
12213;BME280;6169;44.158;22.788;2023-03-12T14:10:20;100975.16;;;11.98;26.72
12213;BME280;6169;44.158;22.788;2023-03-12T14:15:29;100987.88;;;12.21;26.19
12213;BME280;6169;44.158;22.788;2023-03-12T14:20:36;100997.19;;;12.37;26.35
12213;BME280;6169;44.158;22.788;2023-03-12T14:25:42;100997.94;;;12.32;25.38
12213;BME280;6169;44.158;22.788;2023-03-12T14:30:50;101004.59;;;12.24;25.61
12213;BME280;6169;44.158;22.788;2023-03-12T14:36:02;101002.84;;;11.71;27.07
12213;BME280;6169;44.158;22.788;2023-03-12T14:41:08;101011.63;;;11.97;27.50
12213;BME280;6169;44.158;22.788;2023-03-12T14:46:15;100997.75;;;11.51;27.27
12213;BME280;6169;44.158;22.788;2023-03-12T14:51:20;100986.03;;;11.74;27.55
12213;BME280;6169;44.158;22.788;2023-03-12T14:56:26;101002.84;;;11.71;28.47
12213;BME280;6169;44.158;22.788;2023-03-12T15:01:31;100999.22;;;11.12;29.28
12213;BME280;6169;44.158;22.788;2023-03-12T15:06:37;101006.63;;;10.93;29.66
12213;BME280;6169;44.158;22.788;2023-03-12T15:11:42;101016.84;;;10.79;30.29
12213;BME280;6169;44.158;22.788;2023-03-12T15:16:45;101019.47;;;10.00;30.13
12213;BME280;6169;44.158;22.788;2023-03-12T15:21:48;101021.75;;;10.22;31.78
12213;BME280;6169;44.158;22.788;2023-03-12T15:26:53;101017.03;;;10.47;30.84
12213;BME280;6169;44.158;22.788;2023-03-12T15:31:56;101018.63;;;10.37;31.13
12213;BME280;6169;44.158;22.788;2023-03-12T15:37:00;101029.50;;;10.55;31.68
12213;BME280;6169;44.158;22.788;2023-03-12T15:42:08;101040.38;;;9.50;31.89
12213;BME280;6169;44.158;22.788;2023-03-12T15:47:17;101051.00;;;9.58;31.75
12213;BME280;6169;44.158;22.788;2023-03-12T15:52:28;101050.34;;;9.63;32.43
12213;BME280;6169;44.158;22.788;2023-03-12T15:57:33;101057.69;;;9.24;33.21
12213;BME280;6169;44.158;22.788;2023-03-12T16:02:37;101054.91;;;9.05;33.92
12213;BME280;6169;44.158;22.788;2023-03-12T16:07:40;101049.59;;;8.85;34.23
12213;BME280;6169;44.158;22.788;2023-03-12T16:12:44;101068.44;;;8.67;34.96
12213;BME280;6169;44.158;22.788;2023-03-12T16:17:47;101081.72;;;8.82;35.75
12213;BME280;6169;44.158;22.788;2023-03-12T16:22:49;101091.34;;;8.78;35.14
12213;BME280;6169;44.158;22.788;2023-03-12T16:27:55;101088.84;;;8.76;34.90
12213;BME280;6169;44.158;22.788;2023-03-12T16:33:00;101098.16;;;8.35;35.69
12213;BME280;6169;44.158;22.788;2023-03-12T16:38:02;101102.78;;;7.82;36.16
12213;BME280;6169;44.158;22.788;2023-03-12T16:43:13;101119.44;;;8.05;36.56
12213;BME280;6169;44.158;22.788;2023-03-12T16:48:18;101120.69;;;7.76;36.41
12213;BME280;6169;44.158;22.788;2023-03-12T16:53:21;101138.16;;;7.60;36.75
12213;BME280;6169;44.158;22.788;2023-03-12T16:58:25;101146.44;;;7.25;37.18
12213;BME280;6169;44.158;22.788;2023-03-12T17:03:30;101160.47;;;8.02;36.34
12213;BME280;6169;44.158;22.788;2023-03-12T17:08:33;101174.84;;;8.09;36.14
12213;BME280;6169;44.158;22.788;2023-03-12T17:13:37;101194.38;;;7.65;36.92
12213;BME280;6169;44.158;22.788;2023-03-12T17:18:39;101185.72;;;7.21;37.98
12213;BME280;6169;44.158;22.788;2023-03-12T17:23:42;101195.34;;;7.30;39.22
12213;BME280;6169;44.158;22.788;2023-03-12T17:28:46;101204.22;;;7.11;39.26
12213;BME280;6169;44.158;22.788;2023-03-12T17:33:48;101204.63;;;7.08;39.36
12213;BME280;6169;44.158;22.788;2023-03-12T17:38:50;101227.03;;;7.02;39.97
12213;BME280;6169;44.158;22.788;2023-03-12T17:43:54;101205.97;;;6.91;39.05
12213;BME280;6169;44.158;22.788;2023-03-12T17:48:59;101230.41;;;6.82;38.74
12213;BME280;6169;44.158;22.788;2023-03-12T17:54:01;101253.63;;;6.98;39.37
12213;BME280;6169;44.158;22.788;2023-03-12T17:59:05;101257.47;;;6.54;39.61
12213;BME280;6169;44.158;22.788;2023-03-12T18:04:07;101262.56;;;6.42;39.74
12213;BME280;6169;44.158;22.788;2023-03-12T18:09:10;101269.59;;;6.65;39.30
12213;BME280;6169;44.158;22.788;2023-03-12T18:14:14;101273.09;;;6.59;38.99
12213;BME280;6169;44.158;22.788;2023-03-12T18:19:17;101278.59;;;6.44;38.97
12213;BME280;6169;44.158;22.788;2023-03-12T18:24:20;101288.22;;;6.81;38.18
12213;BME280;6169;44.158;22.788;2023-03-12T18:29:24;101305.78;;;6.92;38.28
12213;BME280;6169;44.158;22.788;2023-03-12T18:34:26;101317.41;;;6.64;38.18
12213;BME280;6169;44.158;22.788;2023-03-12T18:39:29;101319.78;;;6.74;38.61
12213;BME280;6169;44.158;22.788;2023-03-12T18:44:33;101320.47;;;6.83;37.83
12213;BME280;6169;44.158;22.788;2023-03-12T18:49:36;101332.00;;;7.26;38.01
12213;BME280;6169;44.158;22.788;2023-03-12T18:54:39;101350.13;;;6.98;38.18
12213;BME280;6169;44.158;22.788;2023-03-12T18:59:44;101350.31;;;6.96;37.98
12213;BME280;6169;44.158;22.788;2023-03-12T19:04:47;101338.53;;;6.33;39.14
12213;BME280;6169;44.158;22.788;2023-03-12T19:09:51;101343.28;;;6.52;39.00
12213;BME280;6169;44.158;22.788;2023-03-12T19:14:54;101349.28;;;6.76;37.97
12213;BME280;6169;44.158;22.788;2023-03-12T19:19:57;101368.22;;;6.76;38.33
12213;BME280;6169;44.158;22.788;2023-03-12T19:24:59;101364.38;;;6.63;38.68
12213;BME280;6169;44.158;22.788;2023-03-12T19:30:05;101364.31;;;6.35;39.16
12213;BME280;6169;44.158;22.788;2023-03-12T19:35:10;101372.66;;;6.62;39.22
12213;BME280;6169;44.158;22.788;2023-03-12T19:40:13;101366.97;;;6.78;38.22
12213;BME280;6169;44.158;22.788;2023-03-12T19:45:16;101369.56;;;6.65;39.12
12213;BME280;6169;44.158;22.788;2023-03-12T19:50:19;101382.06;;;6.44;39.85
12213;BME280;6169;44.158;22.788;2023-03-12T19:55:21;101375.75;;;6.16;39.84
12213;BME280;6169;44.158;22.788;2023-03-12T20:00:25;101390.00;;;6.10;40.13
12213;BME280;6169;44.158;22.788;2023-03-12T20:05:27;101391.59;;;6.40;39.45
12213;BME280;6169;44.158;22.788;2023-03-12T20:10:30;101399.06;;;6.02;40.36
12213;BME280;6169;44.158;22.788;2023-03-12T20:15:35;101396.81;;;6.06;40.14
12213;BME280;6169;44.158;22.788;2023-03-12T20:20:40;101402.31;;;6.34;40.01
12213;BME280;6169;44.158;22.788;2023-03-12T20:25:46;101406.88;;;5.97;40.54
12213;BME280;6169;44.158;22.788;2023-03-12T20:30:50;101415.69;;;6.06;40.05
12213;BME280;6169;44.158;22.788;2023-03-12T20:35:52;101410.09;;;5.56;41.35
12213;BME280;6169;44.158;22.788;2023-03-12T20:40:55;101425.41;;;5.55;41.26
12213;BME280;6169;44.158;22.788;2023-03-12T20:45:59;101428.22;;;5.77;40.53
12213;BME280;6169;44.158;22.788;2023-03-12T20:51:01;101437.25;;;5.40;41.61
12213;BME280;6169;44.158;22.788;2023-03-12T20:56:04;101436.16;;;5.26;41.11
12213;BME280;6169;44.158;22.788;2023-03-12T21:01:08;101433.78;;;5.31;40.84
12213;BME280;6169;44.158;22.788;2023-03-12T21:06:12;101448.84;;;5.02;41.71
12213;BME280;6169;44.158;22.788;2023-03-12T21:11:14;101443.03;;;4.91;42.10
12213;BME280;6169;44.158;22.788;2023-03-12T21:16:18;101465.47;;;4.91;41.97
12213;BME280;6169;44.158;22.788;2023-03-12T21:21:21;101465.16;;;5.24;41.01
12213;BME280;6169;44.158;22.788;2023-03-12T21:26:23;101472.00;;;5.12;41.52
12213;BME280;6169;44.158;22.788;2023-03-12T21:31:27;101470.59;;;5.39;41.04
12213;BME280;6169;44.158;22.788;2023-03-12T21:36:29;101477.78;;;5.08;41.30
12213;BME280;6169;44.158;22.788;2023-03-12T21:41:31;101466.94;;;4.94;41.97
12213;BME280;6169;44.158;22.788;2023-03-12T21:46:34;101480.28;;;4.87;41.06
12213;BME280;6169;44.158;22.788;2023-03-12T21:51:37;101469.56;;;4.79;41.85
12213;BME280;6169;44.158;22.788;2023-03-12T21:56:39;101484.78;;;4.95;41.42
12213;BME280;6169;44.158;22.788;2023-03-12T22:01:42;101482.03;;;5.03;41.12
12213;BME280;6169;44.158;22.788;2023-03-12T22:06:44;101478.00;;;4.76;41.90
12213;BME280;6169;44.158;22.788;2023-03-12T22:11:47;101486.91;;;4.99;41.20
12213;BME280;6169;44.158;22.788;2023-03-12T22:16:50;101483.47;;;4.68;41.90
12213;BME280;6169;44.158;22.788;2023-03-12T22:21:52;101488.63;;;4.77;41.68
12213;BME280;6169;44.158;22.788;2023-03-12T22:26:55;101485.06;;;4.77;41.86
12213;BME280;6169;44.158;22.788;2023-03-12T22:31:58;101487.31;;;4.42;42.71
12213;BME280;6169;44.158;22.788;2023-03-12T22:37:00;101491.44;;;4.30;42.68
12213;BME280;6169;44.158;22.788;2023-03-12T22:42:03;101500.84;;;4.26;42.67
12213;BME280;6169;44.158;22.788;2023-03-12T22:47:07;101506.91;;;4.28;42.76
12213;BME280;6169;44.158;22.788;2023-03-12T22:52:09;101510.38;;;4.45;42.42
12213;BME280;6169;44.158;22.788;2023-03-12T22:57:11;101518.56;;;4.12;43.19
12213;BME280;6169;44.158;22.788;2023-03-12T23:02:15;101524.16;;;4.10;43.26
12213;BME280;6169;44.158;22.788;2023-03-12T23:07:17;101524.31;;;4.48;43.30
12213;BME280;6169;44.158;22.788;2023-03-12T23:12:19;101540.06;;;4.28;43.13
12213;BME280;6169;44.158;22.788;2023-03-12T23:17:22;101538.22;;;4.20;42.69
12213;BME280;6169;44.158;22.788;2023-03-12T23:22:25;101539.47;;;4.10;43.87
12213;BME280;6169;44.158;22.788;2023-03-12T23:27:27;101537.19;;;4.30;43.13
12213;BME280;6169;44.158;22.788;2023-03-12T23:32:31;101558.09;;;4.19;43.18
12213;BME280;6169;44.158;22.788;2023-03-12T23:37:33;101555.16;;;4.37;42.62
12213;BME280;6169;44.158;22.788;2023-03-12T23:42:35;101557.66;;;4.47;43.09
12213;BME280;6169;44.158;22.788;2023-03-12T23:47:38;101562.72;;;4.42;43.15
12213;BME280;6169;44.158;22.788;2023-03-12T23:52:40;101563.78;;;4.25;43.09
12213;BME280;6169;44.158;22.788;2023-03-12T23:57:43;101561.16;;;4.08;43.63
